Time;durP1;ratioP1;P1;durP2;ratioP2;P2;SDS_P1;SDS_P2;PMS_P1;PMS_P2;Temp;Humidity;BMP_temperature;BMP_pressure;BME280_temperature;BME280_humidity;BME280_pressure;Samples;Min_cycle;Max_cycle;Signal;HPM_P1;HPM_P2
2023/12/03 00:00:11;;;;;;;24.07;14.03;;;-1.50;85.00;;;;;;5039135;28;20077;-72
2023/12/03 00:02:37;;;;;;;24.97;13.70;;;-1.50;85.00;;;;;;5047283;28;20077;-72
2023/12/03 00:05:03;;;;;;;29.53;14.70;;;-1.60;85.00;;;;;;5030317;28;20048;-71
2023/12/03 00:07:30;;;;;;;29.73;15.03;;;-1.70;84.90;;;;;;5067395;28;20044;-72
2023/12/03 00:09:56;;;;;;;23.93;14.27;;;-1.70;84.90;;;;;;5024298;28;20382;-72
2023/12/03 00:12:22;;;;;;;27.40;14.27;;;-1.80;84.90;;;;;;5042707;28;20080;-71
2023/12/03 00:14:48;;;;;;;28.93;14.07;;;-1.80;84.80;;;;;;5035938;28;20065;-71
2023/12/03 00:17:13;;;;;;;28.30;14.47;;;-1.90;85.00;;;;;;5036442;28;20049;-72
2023/12/03 00:19:40;;;;;;;30.30;14.60;;;-1.90;85.00;;;;;;5047113;28;20167;-72
2023/12/03 00:22:07;;;;;;;28.70;15.20;;;-1.90;85.00;;;;;;5045507;28;20053;-73
2023/12/03 00:24:32;;;;;;;30.37;16.93;;;-1.90;85.00;;;;;;5047194;28;20123;-71
2023/12/03 00:26:58;;;;;;;29.87;17.17;;;-1.90;85.10;;;;;;5046157;28;20045;-71
2023/12/03 00:29:24;;;;;;;23.43;12.47;;;-1.90;85.20;;;;;;5046098;28;20049;-71
2023/12/03 00:31:50;;;;;;;19.20;12.10;;;-1.80;85.30;;;;;;5045364;28;20056;-74
2023/12/03 00:34:16;;;;;;;17.40;10.87;;;-1.70;85.50;;;;;;5045562;28;20437;-74
2023/12/03 00:36:41;;;;;;;19.03;10.80;;;-1.60;85.60;;;;;;5046092;28;20048;-72
2023/12/03 00:39:07;;;;;;;19.33;10.47;;;-1.50;85.70;;;;;;5046793;28;20048;-72
2023/12/03 00:41:33;;;;;;;19.73;11.27;;;-1.50;85.70;;;;;;5045148;28;20541;-71
2023/12/03 00:43:59;;;;;;;19.53;10.77;;;-1.50;85.70;;;;;;5046684;28;20053;-72
2023/12/03 00:46:24;;;;;;;16.87;10.30;;;-1.50;85.60;;;;;;5046567;28;20581;-71
2023/12/03 00:48:50;;;;;;;17.17;10.53;;;-1.60;85.40;;;;;;5046356;28;20048;-72
2023/12/03 00:51:16;;;;;;;15.33;9.23;;;-1.60;85.30;;;;;;5040443;28;20056;-73
2023/12/03 00:53:42;;;;;;;17.03;9.83;;;-1.70;85.40;;;;;;5046112;28;20053;-70
2023/12/03 00:56:09;;;;;;;17.03;10.27;;;-1.70;85.30;;;;;;5045571;28;20067;-72
2023/12/03 00:58:34;;;;;;;20.77;10.83;;;-1.70;85.30;;;;;;5046873;28;20052;-71
2023/12/03 01:01:00;;;;;;;19.30;10.93;;;-1.80;85.20;;;;;;5044934;28;20061;-72
2023/12/03 01:03:25;;;;;;;16.27;10.30;;;-1.90;85.20;;;;;;5031387;28;20041;-71
2023/12/03 01:05:51;;;;;;;16.43;10.20;;;-1.90;85.20;;;;;;5024894;28;20527;-71
2023/12/03 01:08:18;;;;;;;21.13;11.83;;;-2.00;85.20;;;;;;5026330;28;20077;-72
2023/12/03 01:10:44;;;;;;;19.77;10.17;;;-2.10;85.20;;;;;;5025766;28;20576;-73
2023/12/03 01:13:09;;;;;;;12.80;8.23;;;-2.10;85.20;;;;;;5024016;28;20136;-72
2023/12/03 01:15:35;;;;;;;15.87;10.00;;;-2.00;85.20;;;;;;5025295;28;20621;-71
2023/12/03 01:18:01;;;;;;;15.07;9.00;;;-2.10;85.20;;;;;;5034100;28;20053;-72
2023/12/03 01:20:26;;;;;;;15.93;9.20;;;-2.10;85.20;;;;;;5046577;28;20057;-71
2023/12/03 01:22:52;;;;;;;13.33;9.10;;;-2.10;85.20;;;;;;5046073;28;20110;-71
2023/12/03 01:25:18;;;;;;;14.93;8.80;;;-2.10;85.20;;;;;;5045073;28;20053;-71
2023/12/03 01:27:43;;;;;;;13.57;8.50;;;-2.10;85.20;;;;;;5045558;28;20060;-72
2023/12/03 01:30:09;;;;;;;17.90;10.37;;;-2.20;85.20;;;;;;5044643;28;20060;-73
2023/12/03 01:32:35;;;;;;;18.33;10.37;;;-2.20;85.20;;;;;;5044146;28;20045;-71
2023/12/03 01:35:01;;;;;;;14.60;9.23;;;-2.20;85.10;;;;;;5045578;28;20056;-71
2023/12/03 01:37:26;;;;;;;14.47;8.97;;;-2.30;85.10;;;;;;5045521;28;20231;-71
2023/12/03 01:39:52;;;;;;;15.57;8.97;;;-2.30;85.10;;;;;;5045478;28;20052;-71
2023/12/03 01:42:20;;;;;;;14.10;9.30;;;-2.30;85.10;;;;;;5043015;28;20041;-72
2023/12/03 01:44:46;;;;;;;14.10;8.37;;;-2.30;85.20;;;;;;5045750;28;20049;-74
2023/12/03 01:47:13;;;;;;;16.47;9.40;;;-2.30;85.10;;;;;;5044143;28;20053;-75
2023/12/03 01:49:40;;;;;;;12.73;8.50;;;-2.30;85.10;;;;;;5045325;28;20049;-71
2023/12/03 01:52:06;;;;;;;14.73;8.67;;;-2.30;85.20;;;;;;5043746;28;20522;-71
2023/12/03 01:54:36;;;;;;;13.83;8.60;;;-2.30;85.30;;;;;;5044492;28;20048;-72
2023/12/03 01:57:02;;;;;;;12.20;7.83;;;-2.20;85.40;;;;;;5031906;28;20527;-71
2023/12/03 01:59:29;;;;;;;14.40;7.90;;;-2.20;85.40;;;;;;5025403;28;20067;-72
2023/12/03 02:01:54;;;;;;;14.33;8.10;;;-2.10;85.50;;;;;;5023940;28;20492;-72
2023/12/03 02:04:20;;;;;;;12.23;7.90;;;-2.10;85.60;;;;;;5008052;28;20046;-72
2023/12/03 02:06:46;;;;;;;12.77;8.03;;;-2.10;85.60;;;;;;5020830;28;20499;-74
2023/12/03 02:09:14;;;;;;;17.40;8.73;;;-2.10;85.50;;;;;;5025201;28;20058;-72
2023/12/03 02:11:40;;;;;;;14.80;8.47;;;-2.10;85.50;;;;;;5039274;28;20056;-73
2023/12/03 02:14:06;;;;;;;13.10;7.97;;;-2.10;85.60;;;;;;5044888;28;20057;-71
2023/12/03 02:16:34;;;;;;;11.33;7.63;;;-2.10;85.50;;;;;;5043995;28;20044;-71
2023/12/03 02:19:01;;;;;;;12.97;7.87;;;-2.10;85.60;;;;;;5042539;28;20057;-72
2023/12/03 02:21:30;;;;;;;14.27;8.50;;;-2.10;85.60;;;;;;5043355;28;20408;-72
2023/12/03 02:23:56;;;;;;;15.53;9.03;;;-2.10;85.50;;;;;;5044484;28;20452;-71
2023/12/03 02:26:22;;;;;;;13.53;8.30;;;-2.10;85.50;;;;;;5043813;28;20084;-72
2023/12/03 02:28:48;;;;;;;16.47;8.90;;;-2.10;85.50;;;;;;5045018;28;20064;-72
2023/12/03 02:31:14;;;;;;;16.37;8.57;;;-2.20;85.40;;;;;;5044074;28;20558;-72
2023/12/03 02:33:43;;;;;;;15.93;9.10;;;-2.20;85.40;;;;;;5045099;28;20136;-72
2023/12/03 02:36:09;;;;;;;13.73;9.00;;;-2.30;85.30;;;;;;5044235;28;20531;-71
2023/12/03 02:38:34;;;;;;;15.17;8.80;;;-2.30;85.30;;;;;;5045118;28;20064;-71
2023/12/03 02:41:00;;;;;;;16.27;8.83;;;-2.30;85.30;;;;;;5044185;28;20103;-72
2023/12/03 02:43:26;;;;;;;14.63;9.03;;;-2.40;85.30;;;;;;5044474;28;20060;-72
2023/12/03 02:45:51;;;;;;;17.67;8.73;;;-2.40;85.30;;;;;;5044589;28;20127;-72
2023/12/03 02:48:17;;;;;;;14.97;8.53;;;-2.50;85.30;;;;;;5043265;28;20336;-71
2023/12/03 02:50:43;;;;;;;12.77;8.27;;;-2.50;85.20;;;;;;5043865;28;20049;-74
2023/12/03 02:53:08;;;;;;;14.93;9.23;;;-2.60;85.20;;;;;;5044038;28;20083;-72
2023/12/03 02:55:34;;;;;;;14.70;7.37;;;-2.70;85.10;;;;;;5043855;28;20049;-72
2023/12/03 02:57:59;;;;;;;16.30;8.03;;;-2.70;85.10;;;;;;5031685;28;20092;-73
2023/12/03 03:00:25;;;;;;;16.27;9.20;;;-2.90;85.00;;;;;;5039711;28;20300;-71
2023/12/03 03:02:51;;;;;;;18.47;8.83;;;-3.00;84.90;;;;;;5039421;28;20544;-72
2023/12/03 03:05:17;;;;;;;10.43;7.37;;;-3.10;84.80;;;;;;5029113;28;20053;-71
2023/12/03 03:07:43;;;;;;;13.20;8.77;;;-3.20;84.80;;;;;;5044418;28;20557;-73
2023/12/03 03:10:09;;;;;;;13.67;9.37;;;-3.20;84.80;;;;;;5043418;28;21289;-71
2023/12/03 03:12:34;;;;;;;13.60;9.20;;;-3.30;84.70;;;;;;5058800;28;20048;-71
2023/12/03 03:15:00;;;;;;;12.63;9.40;;;-3.40;84.70;;;;;;5064586;28;20458;-72
2023/12/03 03:17:25;;;;;;;14.73;8.80;;;-3.50;84.70;;;;;;5057743;28;20515;-72
2023/12/03 03:19:51;;;;;;;10.87;8.37;;;-3.50;84.60;;;;;;5044517;28;20051;-72
2023/12/03 03:22:17;;;;;;;10.63;8.53;;;-3.60;84.70;;;;;;5042052;28;20041;-73
2023/12/03 03:24:42;;;;;;;11.63;8.37;;;-3.60;84.60;;;;;;5043590;28;20090;-72
2023/12/03 03:27:08;;;;;;;15.60;8.73;;;-3.60;84.60;;;;;;5041048;28;20091;-72
2023/12/03 03:29:35;;;;;;;11.27;9.03;;;-3.70;84.60;;;;;;5043348;28;20056;-72
2023/12/03 03:32:01;;;;;;;16.50;9.93;;;-3.70;84.60;;;;;;5045452;28;20081;-72
2023/12/03 03:34:27;;;;;;;12.83;10.60;;;-3.80;84.60;;;;;;5048222;28;20442;-72
2023/12/03 03:36:52;;;;;;;12.23;10.03;;;-3.80;84.60;;;;;;5047516;28;20049;-72
2023/12/03 03:39:18;;;;;;;12.93;10.93;;;-3.80;84.60;;;;;;5047676;28;20053;-72
2023/12/03 03:41:44;;;;;;;14.57;11.63;;;-3.90;84.60;;;;;;5047004;28;20080;-74
2023/12/03 03:44:09;;;;;;;13.20;11.30;;;-3.90;84.60;;;;;;5047617;28;20061;-73
2023/12/03 03:46:35;;;;;;;12.37;11.03;;;-4.00;84.50;;;;;;5048048;28;20465;-71
2023/12/03 03:49:00;;;;;;;12.17;10.97;;;-4.00;84.60;;;;;;5046971;28;20057;-72
2023/12/03 03:51:26;;;;;;;13.30;11.90;;;-4.00;84.50;;;;;;5046490;28;20591;-71
2023/12/03 03:53:52;;;;;;;15.60;12.23;;;-4.00;84.60;;;;;;5046963;28;20094;-71
2023/12/03 03:56:18;;;;;;;14.57;13.03;;;-4.00;84.50;;;;;;5045301;28;20494;-71
2023/12/03 03:58:43;;;;;;;12.33;11.17;;;-4.00;84.60;;;;;;5046793;28;20052;-72
2023/12/03 04:01:10;;;;;;;14.23;12.83;;;-4.00;84.60;;;;;;5043670;28;20052;-71
2023/12/03 04:03:35;;;;;;;14.50;13.10;;;-4.00;84.60;;;;;;5046429;28;20496;-71
2023/12/03 04:06:03;;;;;;;15.67;13.77;;;-4.10;84.60;;;;;;5034775;28;20282;-71
2023/12/03 04:08:29;;;;;;;15.17;13.60;;;-4.10;84.60;;;;;;5038682;28;20187;-71
2023/12/03 04:10:55;;;;;;;15.47;13.33;;;-4.10;84.60;;;;;;5036571;28;20049;-72
2023/12/03 04:13:21;;;;;;;15.20;13.17;;;-4.10;84.60;;;;;;5047109;28;20045;-72
2023/12/03 04:15:47;;;;;;;14.23;12.83;;;-4.10;84.60;;;;;;5046780;28;20057;-73
2023/12/03 04:18:12;;;;;;;15.70;13.97;;;-4.20;84.60;;;;;;5046624;28;20064;-70
2023/12/03 04:20:38;;;;;;;14.77;13.13;;;-4.20;84.60;;;;;;5046126;28;20072;-71
2023/12/03 04:23:04;;;;;;;15.97;13.53;;;-4.20;84.60;;;;;;5046960;28;20065;-71
2023/12/03 04:25:30;;;;;;;15.73;13.63;;;-4.20;84.60;;;;;;5046909;28;20411;-73
2023/12/03 04:27:56;;;;;;;19.27;15.97;;;-4.20;84.60;;;;;;5046428;28;20072;-72
2023/12/03 04:30:22;;;;;;;17.33;15.37;;;-4.20;84.60;;;;;;5046017;28;20060;-71
2023/12/03 04:32:48;;;;;;;18.43;14.40;;;-4.20;84.50;;;;;;5047172;28;20107;-72
2023/12/03 04:35:14;;;;;;;14.37;12.67;;;-4.20;84.60;;;;;;5044538;28;20052;-74
2023/12/03 04:37:40;;;;;;;15.90;14.23;;;-4.30;84.50;;;;;;5048010;28;20052;-72
2023/12/03 04:40:06;;;;;;;15.40;13.43;;;-4.40;84.50;;;;;;5027777;28;20051;-71
2023/12/03 04:42:32;;;;;;;15.83;13.40;;;-4.40;84.50;;;;;;5046698;28;20041;-71
2023/12/03 04:44:58;;;;;;;16.47;14.33;;;-4.40;84.40;;;;;;5046972;28;20056;-71
2023/12/03 04:47:23;;;;;;;18.43;14.43;;;-4.40;84.50;;;;;;5046317;28;20075;-73
2023/12/03 04:49:49;;;;;;;21.97;16.50;;;-4.20;84.70;;;;;;5040769;28;20438;-71
2023/12/03 04:52:15;;;;;;;22.43;16.10;;;-4.10;84.80;;;;;;5025823;28;20175;-74
2023/12/03 04:54:40;;;;;;;23.97;15.73;;;-4.00;85.00;;;;;;5043087;28;20446;-71
2023/12/03 04:57:06;;;;;;;25.67;15.43;;;-3.80;85.20;;;;;;5029803;28;20050;-71
2023/12/03 04:59:31;;;;;;;35.27;18.57;;;-3.60;85.30;;;;;;5024056;28;20107;-71
2023/12/03 05:01:57;;;;;;;29.53;17.80;;;-3.60;85.40;;;;;;5041479;28;20061;-70
2023/12/03 05:04:25;;;;;;;39.17;20.00;;;-3.40;85.50;;;;;;5038034;28;20486;-71
2023/12/03 05:06:51;;;;;;;102.70;24.97;;;-3.30;85.50;;;;;;5028140;28;20045;-71
2023/12/03 05:09:16;;;;;;;118.87;26.70;;;-3.20;85.50;;;;;;5024758;28;20545;-71
2023/12/03 05:11:44;;;;;;;146.90;57.63;;;-3.20;85.60;;;;;;5026424;28;20045;-71
2023/12/03 05:14:10;;;;;;;42.80;21.97;;;-3.10;85.70;;;;;;5026380;28;20076;-71
2023/12/03 05:16:36;;;;;;;174.13;25.60;;;-3.10;85.50;;;;;;5025088;28;20526;-71
2023/12/03 05:19:02;;;;;;;305.50;29.90;;;-3.20;85.50;;;;;;5025614;28;20060;-71
2023/12/03 05:21:27;;;;;;;198.23;27.33;;;-3.20;85.50;;;;;;5026483;28;20045;-70
2023/12/03 05:23:53;;;;;;;284.00;35.00;;;-3.20;85.40;;;;;;5026324;28;20457;-71
2023/12/03 05:26:19;;;;;;;96.70;27.60;;;-3.40;85.30;;;;;;5024723;28;20049;-70
2023/12/03 05:28:45;;;;;;;159.60;31.90;;;-3.40;85.20;;;;;;5025160;28;20072;-73
2023/12/03 05:31:10;;;;;;;167.50;40.37;;;-3.50;85.10;;;;;;5024748;28;20058;-71
2023/12/03 05:33:36;;;;;;;110.27;29.63;;;-3.50;85.20;;;;;;5025820;28;20156;-71
2023/12/03 05:36:02;;;;;;;220.00;39.07;;;-3.40;85.20;;;;;;5023918;28;20053;-71
2023/12/03 05:38:29;;;;;;;181.70;40.73;;;-3.40;85.30;;;;;;5024401;28;20048;-71
2023/12/03 05:40:54;;;;;;;293.93;47.30;;;-3.30;85.30;;;;;;5025221;28;20085;-71
2023/12/03 05:43:20;;;;;;;333.63;48.80;;;-3.20;85.50;;;;;;5026345;28;20084;-71
2023/12/03 05:45:46;;;;;;;327.57;46.77;;;-3.10;85.70;;;;;;5021221;28;20056;-73
2023/12/03 05:48:11;;;;;;;372.63;52.03;;;-2.90;85.80;;;;;;5014290;28;20049;-71
2023/12/03 05:50:37;;;;;;;452.47;60.30;;;-2.80;85.90;;;;;;5005428;28;20134;-70
2023/12/03 05:53:03;;;;;;;432.73;65.57;;;-2.70;86.00;;;;;;5008172;28;20049;-71
2023/12/03 05:55:28;;;;;;;419.53;69.57;;;-2.70;86.00;;;;;;5027064;28;20548;-71
2023/12/03 05:57:54;;;;;;;457.97;78.57;;;-2.60;86.20;;;;;;5043521;28;20406;-71
2023/12/03 06:00:20;;;;;;;504.73;80.27;;;-2.50;86.20;;;;;;5040731;28;20484;-72
2023/12/03 06:02:45;;;;;;;662.43;80.90;;;-2.40;86.30;;;;;;5037268;28;20492;-71
2023/12/03 06:05:11;;;;;;;826.30;91.50;;;-2.30;86.30;;;;;;5028625;28;20052;-71
2023/12/03 06:07:37;;;;;;;914.50;108.57;;;-2.20;86.40;;;;;;5045292;28;20098;-73
2023/12/03 06:10:03;;;;;;;829.83;101.93;;;-2.10;86.60;;;;;;5044289;28;20495;-69
2023/12/03 06:12:29;;;;;;;894.80;108.87;;;-2.00;86.60;;;;;;5043922;28;20041;-71
2023/12/03 06:14:55;;;;;;;1000.00;117.50;;;-1.90;86.70;;;;;;5045023;28;20049;-72
2023/12/03 06:17:21;;;;;;;999.47;119.70;;;-1.80;86.80;;;;;;5045013;28;20047;-72
2023/12/03 06:19:46;;;;;;;976.47;117.60;;;-1.70;86.80;;;;;;5044788;28;20128;-72
2023/12/03 06:22:12;;;;;;;1107.27;132.53;;;-1.70;86.90;;;;;;5043945;28;20099;-72
2023/12/03 06:24:38;;;;;;;1012.07;128.23;;;-1.60;86.80;;;;;;5043842;28;20051;-72
2023/12/03 06:27:04;;;;;;;1107.53;136.27;;;-1.50;86.90;;;;;;5042974;28;20053;-72
2023/12/03 06:29:30;;;;;;;1138.17;135.77;;;-1.50;87.00;;;;;;5044750;28;20045;-72
2023/12/03 06:31:56;;;;;;;1126.90;143.70;;;-1.40;87.00;;;;;;5038438;28;20395;-73
2023/12/03 06:34:21;;;;;;;1297.07;160.37;;;-1.30;87.10;;;;;;5035724;28;20046;-73
2023/12/03 06:36:47;;;;;;;1227.03;147.23;;;-1.30;87.10;;;;;;5022394;28;20049;-72
2023/12/03 06:39:12;;;;;;;1237.83;157.40;;;-1.30;87.10;;;;;;5022436;28;20057;-73
2023/12/03 06:41:38;;;;;;;1183.03;150.27;;;-1.20;87.10;;;;;;5023424;28;20042;-71
2023/12/03 06:44:04;;;;;;;1299.97;157.13;;;-1.10;87.20;;;;;;5023270;28;20062;-71
2023/12/03 06:46:30;;;;;;;1383.40;181.97;;;-1.10;87.20;;;;;;5018409;28;20137;-71
2023/12/03 06:48:56;;;;;;;1202.30;159.50;;;-1.10;87.20;;;;;;5040063;28;20131;-71
2023/12/03 06:51:21;;;;;;;1056.77;144.37;;;-1.10;87.30;;;;;;5028908;28;20076;-71
2023/12/03 06:53:47;;;;;;;1036.17;136.73;;;-1.00;87.30;;;;;;5024655;28;20421;-72
2023/12/03 06:56:12;;;;;;;1079.33;144.80;;;-1.00;87.40;;;;;;5024222;28;20412;-73
2023/12/03 06:58:38;;;;;;;1007.30;140.63;;;-1.00;87.30;;;;;;5038470;28;20474;-71
2023/12/03 07:01:04;;;;;;;1157.20;146.67;;;-0.90;87.40;;;;;;5044297;28;20103;-72
2023/12/03 07:03:30;;;;;;;1019.77;131.47;;;-0.90;87.30;;;;;;5034474;28;20045;-71
2023/12/03 07:05:56;;;;;;;1109.97;144.73;;;-0.90;87.40;;;;;;5026295;28;20056;-71
2023/12/03 07:08:21;;;;;;;1032.67;140.83;;;-0.80;87.40;;;;;;5029393;28;20527;-71
2023/12/03 07:10:47;;;;;;;1062.97;137.17;;;-0.80;87.30;;;;;;5037679;28;20056;-72
2023/12/03 07:13:13;;;;;;;1001.50;130.90;;;-0.80;87.40;;;;;;5050443;28;20537;-72
2023/12/03 07:15:39;;;;;;;932.57;129.83;;;-0.70;87.40;;;;;;5045159;28;20053;-71
2023/12/03 07:18:04;;;;;;;969.97;135.07;;;-0.70;87.50;;;;;;5047367;28;20067;-71
2023/12/03 07:20:30;;;;;;;1172.67;143.20;;;-0.70;87.50;;;;;;5045487;28;20606;-71
2023/12/03 07:22:55;;;;;;;948.57;128.30;;;-0.70;87.50;;;;;;5048130;28;20141;-71
2023/12/03 07:25:24;;;;;;;1050.30;133.37;;;-0.70;87.50;;;;;;5046058;28;20044;-71
2023/12/03 07:27:50;;;;;;;1015.63;132.87;;;-0.70;87.40;;;;;;5047466;28;20049;-71
2023/12/03 07:30:15;;;;;;;793.73;111.17;;;-0.70;87.50;;;;;;5046182;28;20051;-71
2023/12/03 07:32:41;;;;;;;1017.83;133.10;;;-0.70;87.50;;;;;;5047182;28;20067;-71
2023/12/03 07:35:07;;;;;;;938.70;125.93;;;-0.70;87.50;;;;;;5046158;28;20163;-71
2023/12/03 07:37:33;;;;;;;933.10;122.90;;;-0.70;87.50;;;;;;5048314;28;20049;-72
2023/12/03 07:39:58;;;;;;;648.53;100.60;;;-0.60;87.50;;;;;;5050021;28;20417;-71
2023/12/03 07:42:26;;;;;;;788.20;114.83;;;-0.60;87.50;;;;;;5050959;28;20467;-71
2023/12/03 07:44:51;;;;;;;1102.87;234.60;;;-0.60;87.50;;;;;;5049973;28;20053;-72
2023/12/03 07:47:17;;;;;;;1050.60;240.80;;;-0.60;87.60;;;;;;5046343;28;20049;-72
2023/12/03 07:49:43;;;;;;;1029.97;139.90;;;-0.60;87.60;;;;;;5044773;28;20045;-72
2023/12/03 07:52:09;;;;;;;644.53;102.77;;;-0.60;87.60;;;;;;5045881;28;20052;-71
2023/12/03 07:54:35;;;;;;;609.60;100.07;;;-0.50;87.60;;;;;;5041204;28;20140;-73
2023/12/03 07:57:00;;;;;;;650.07;99.60;;;-0.50;87.60;;;;;;5043653;28;20060;-71
2023/12/03 07:59:26;;;;;;;595.33;95.77;;;-0.50;87.60;;;;;;5041643;28;20060;-72
2023/12/03 08:01:53;;;;;;;528.47;80.40;;;-0.50;87.60;;;;;;5039478;28;20057;-72
2023/12/03 08:04:19;;;;;;;520.83;75.13;;;-0.50;87.70;;;;;;5018450;28;20045;-72
2023/12/03 08:06:45;;;;;;;564.10;80.63;;;-0.40;87.70;;;;;;5021579;28;20059;-73
2023/12/03 08:09:11;;;;;;;621.27;84.53;;;-0.40;87.60;;;;;;5040386;28;20057;-71
2023/12/03 08:11:37;;;;;;;624.07;82.70;;;-0.40;87.70;;;;;;5039951;28;20058;-72
2023/12/03 08:14:03;;;;;;;656.63;85.87;;;-0.40;87.70;;;;;;5044332;28;20057;-72
2023/12/03 08:16:29;;;;;;;602.90;83.10;;;-0.40;87.70;;;;;;5043492;28;20045;-72
2023/12/03 08:18:54;;;;;;;578.70;80.37;;;-0.40;87.60;;;;;;5034086;28;20056;-70
2023/12/03 08:21:20;;;;;;;505.60;72.57;;;-0.40;87.60;;;;;;5028599;28;20476;-72
2023/12/03 08:23:46;;;;;;;468.40;63.87;;;-0.50;87.70;;;;;;5022746;28;20060;-72
2023/12/03 08:26:12;;;;;;;374.13;56.47;;;-0.50;87.60;;;;;;5023856;28;20053;-71
2023/12/03 08:28:38;;;;;;;427.77;62.67;;;-0.50;87.70;;;;;;5024720;28;20057;-73
2023/12/03 08:31:04;;;;;;;399.57;58.67;;;-0.50;87.70;;;;;;5011132;28;20069;-72
2023/12/03 08:33:30;;;;;;;447.50;63.13;;;-0.50;87.60;;;;;;5045432;28;20490;-72
2023/12/03 08:35:57;;;;;;;432.90;63.37;;;-0.50;87.60;;;;;;5039369;28;20049;-72
2023/12/03 08:38:22;;;;;;;442.30;61.67;;;-0.50;87.60;;;;;;5022797;28;20056;-71
2023/12/03 08:40:48;;;;;;;394.10;59.50;;;-0.50;87.60;;;;;;5024522;28;20057;-71
2023/12/03 08:43:15;;;;;;;458.97;66.27;;;-0.50;87.60;;;;;;5031159;28;20428;-72
2023/12/03 08:45:41;;;;;;;437.43;64.67;;;-0.50;87.70;;;;;;5024352;28;20136;-71
2023/12/03 08:48:07;;;;;;;339.03;59.33;;;-0.50;87.70;;;;;;5018643;28;20058;-71
2023/12/03 08:50:33;;;;;;;329.27;58.20;;;-0.50;87.60;;;;;;5027699;28;20103;-72
2023/12/03 08:52:58;;;;;;;262.53;53.27;;;-0.40;87.70;;;;;;5037688;28;20049;-72
2023/12/03 08:55:24;;;;;;;348.73;60.77;;;-0.40;87.70;;;;;;5027002;28;20046;-71
2023/12/03 08:57:50;;;;;;;275.10;55.47;;;-0.40;87.70;;;;;;5039225;28;20124;-72
2023/12/03 09:00:17;;;;;;;272.53;56.90;;;-0.40;87.70;;;;;;5028722;28;20041;-72
2023/12/03 09:02:48;;;;;;;278.60;55.07;;;-0.30;87.70;;;;;;5022338;28;20049;-73
2023/12/03 09:05:14;;;;;;;258.30;54.47;;;-0.30;87.80;;;;;;5036484;28;20166;-72
2023/12/03 09:07:40;;;;;;;272.17;57.30;;;-0.30;87.80;;;;;;5028969;28;20137;-72
2023/12/03 09:10:07;;;;;;;270.00;57.83;;;-0.30;87.90;;;;;;5023813;28;20041;-72
2023/12/03 09:12:33;;;;;;;259.43;58.37;;;-0.20;87.90;;;;;;5023270;28;20636;-72
2023/12/03 09:14:59;;;;;;;271.07;60.50;;;-0.20;87.80;;;;;;5022777;28;20060;-72
2023/12/03 09:17:26;;;;;;;291.07;62.33;;;-0.20;87.90;;;;;;5022438;28;20140;-71
2023/12/03 09:19:52;;;;;;;274.00;60.67;;;-0.20;87.90;;;;;;5023815;28;20045;-72
2023/12/03 09:22:18;;;;;;;236.73;58.73;;;-0.10;87.90;;;;;;5026890;28;20059;-72
2023/12/03 09:24:43;;;;;;;266.17;60.33;;;-0.10;88.00;;;;;;5043503;28;20068;-72
2023/12/03 09:27:09;;;;;;;252.60;63.83;;;-0.10;88.00;;;;;;5034750;28;20084;-72
2023/12/03 09:29:36;;;;;;;266.03;63.00;;;-0.10;87.90;;;;;;5024960;28;20060;-72
2023/12/03 09:32:03;;;;;;;309.00;68.23;;;0.00;88.00;;;;;;5020498;28;20504;-72
2023/12/03 09:34:29;;;;;;;241.73;72.50;;;0.00;88.00;;;;;;5022011;28;20060;-71
2023/12/03 09:36:56;;;;;;;243.73;66.33;;;0.00;88.00;;;;;;5022591;28;20053;-70
2023/12/03 09:39:21;;;;;;;258.40;68.33;;;0.00;88.10;;;;;;5034655;28;20044;-72
2023/12/03 09:41:49;;;;;;;228.67;66.17;;;0.00;88.00;;;;;;5023642;28;20080;-73
2023/12/03 09:44:27;;;;;;;237.63;69.80;;;0.10;88.10;;;;;;5003705;28;20058;-73
2023/12/03 09:46:54;;;;;;;230.37;69.13;;;0.10;88.00;;;;;;5019528;28;20089;-74
2023/12/03 09:49:23;;;;;;;211.30;67.20;;;0.10;88.10;;;;;;5021984;28;20413;-72
2023/12/03 09:51:50;;;;;;;187.83;65.43;;;0.20;88.10;;;;;;5019571;28;20076;-72
2023/12/03 09:54:15;;;;;;;199.47;71.43;;;0.20;88.10;;;;;;5016721;28;20416;-72
2023/12/03 09:56:46;;;;;;;205.53;66.83;;;0.30;88.00;;;;;;5015764;28;20041;-72
2023/12/03 09:59:14;;;;;;;191.83;70.17;;;0.30;88.10;;;;;;5021235;28;20520;-73
2023/12/03 10:01:41;;;;;;;191.87;72.40;;;0.40;88.10;;;;;;5034537;28;20133;-72
2023/12/03 10:04:07;;;;;;;178.07;66.77;;;0.50;88.10;;;;;;5022746;28;20115;-72
2023/12/03 10:06:36;;;;;;;170.93;66.33;;;0.50;88.00;;;;;;5015467;28;20464;-73
2023/12/03 10:09:06;;;;;;;167.60;67.43;;;0.60;88.10;;;;;;5018706;28;20045;-72
2023/12/03 10:11:39;;;;;;;122.50;50.08;;;0.70;88.10;;;;;;5010291;28;20049;-73
2023/12/03 10:14:10;;;;;;;161.77;67.73;;;0.80;88.00;;;;;;5008608;28;20061;-73
2023/12/03 10:16:36;;;;;;;155.90;66.33;;;0.80;87.90;;;;;;5021163;28;20053;-72
2023/12/03 10:19:02;;;;;;;148.50;65.07;;;0.80;87.90;;;;;;5032230;28;20507;-72
2023/12/03 10:21:28;;;;;;;304.37;159.67;;;1.00;87.90;;;;;;5024298;28;20538;-72
2023/12/03 10:24:03;;;;;;;249.43;131.37;;;1.20;87.70;;;;;;5028755;28;20053;-72
2023/12/03 10:26:29;;;;;;;167.40;80.03;;;1.40;87.70;;;;;;5020926;28;20080;-72
2023/12/03 10:28:55;;;;;;;145.83;72.47;;;1.70;87.60;;;;;;5020213;28;20091;-72
2023/12/03 10:31:21;;;;;;;141.47;66.37;;;1.80;87.20;;;;;;5018660;28;20097;-72
2023/12/03 10:33:46;;;;;;;124.07;63.83;;;1.90;86.50;;;;;;5021961;28;20508;-73
2023/12/03 10:36:13;;;;;;;122.23;60.70;;;1.90;85.50;;;;;;5020467;28;20136;-73
2023/12/03 10:38:43;;;;;;;105.27;56.90;;;2.00;84.80;;;;;;5020527;28;20045;-73
2023/12/03 10:41:15;;;;;;;110.73;58.23;;;2.20;84.00;;;;;;5021767;28;20080;-73
2023/12/03 10:43:42;;;;;;;101.00;56.63;;;2.20;83.00;;;;;;5018737;28;20128;-73
2023/12/03 10:46:12;;;;;;;95.93;54.87;;;2.20;83.10;;;;;;5019400;28;20056;-73
2023/12/03 10:48:41;;;;;;;91.53;53.37;;;2.50;82.80;;;;;;5008445;28;20713;-73
2023/12/03 10:51:08;;;;;;;80.30;48.90;;;3.00;82.10;;;;;;4999503;28;20626;-73
2023/12/03 10:53:35;;;;;;;78.00;50.17;;;3.50;80.80;;;;;;5002450;28;20677;-73
2023/12/03 10:56:06;;;;;;;65.43;43.27;;;3.90;79.60;;;;;;5004186;28;20053;-73
2023/12/03 10:58:38;;;;;;;70.17;44.10;;;4.20;76.80;;;;;;5021125;28;20642;-73
2023/12/03 11:01:25;;;;;;;66.33;42.07;;;4.40;76.50;;;;;;5001614;28;20436;-75
2023/12/03 11:04:23;;;;;;;57.97;38.97;;;4.50;77.00;;;;;;5010383;28;20045;-74
2023/12/03 11:06:49;;;;;;;56.77;38.13;;;4.20;75.80;;;;;;5015045;28;20052;-74
2023/12/03 11:09:15;;;;;;;55.80;38.93;;;3.90;75.90;;;;;;5023384;28;20113;-74
2023/12/03 11:11:41;;;;;;;61.63;39.63;;;4.00;76.90;;;;;;5009361;28;20396;-74
2023/12/03 11:14:07;;;;;;;56.93;38.47;;;4.40;77.00;;;;;;5004356;28;20057;-74
2023/12/03 11:16:52;;;;;;;58.33;39.00;;;4.70;75.70;;;;;;5002674;28;20586;-74
2023/12/03 11:19:21;;;;;;;55.50;37.97;;;4.80;74.50;;;;;;5004210;28;20060;-74
2023/12/03 11:22:16;;;;;;;54.50;37.27;;;5.00;75.40;;;;;;5004480;28;20156;-74
2023/12/03 11:25:02;;;;;;;53.50;36.87;;;5.40;74.00;;;;;;5005655;28;20098;-74
2023/12/03 11:27:27;;;;;;;51.33;36.37;;;5.60;74.50;;;;;;5003681;28;20628;-74
2023/12/03 11:29:55;;;;;;;54.77;37.60;;;6.00;74.10;;;;;;5004706;28;20057;-74
2023/12/03 11:32:24;;;;;;;51.87;37.53;;;6.10;73.20;;;;;;5005014;28;20056;-74
2023/12/03 11:35:00;;;;;;;49.53;36.23;;;5.90;72.90;;;;;;5005412;28;20064;-74
2023/12/03 11:37:27;;;;;;;48.87;35.50;;;5.80;73.10;;;;;;5005033;28;20136;-74
2023/12/03 11:40:13;;;;;;;47.93;35.07;;;5.30;72.30;;;;;;5003712;28;20147;-74
2023/12/03 11:42:43;;;;;;;54.10;36.33;;;4.50;72.10;;;;;;5006082;28;20084;-74
2023/12/03 11:45:25;;;;;;;50.40;35.33;;;3.80;73.30;;;;;;5021988;28;20409;-74
2023/12/03 11:48:06;;;;;;;54.90;36.77;;;3.20;74.80;;;;;;5013825;28;20610;-74
2023/12/03 11:50:35;;;;;;;53.17;37.33;;;2.80;75.80;;;;;;5009053;28;20134;-74
2023/12/03 11:53:02;;;;;;;57.33;36.93;;;2.40;76.20;;;;;;5009337;28;20060;-74
2023/12/03 11:55:32;;;;;;;54.87;37.07;;;2.20;77.00;;;;;;5022792;28;20438;-74
2023/12/03 11:57:58;;;;;;;53.58;34.72;;;1.90;77.20;;;;;;5022789;28;20073;-74
2023/12/03 12:00:24;;;;;;;53.47;34.70;;;1.60;77.70;;;;;;5005745;28;20140;-74
2023/12/03 12:05:46;;;;;;;57.37;36.10;;;1.40;78.70;;;;;;5039884;27;20420;-74
2023/12/03 12:08:19;;;;;;;60.30;37.10;;;1.20;79.30;;;;;;5036805;28;20060;-73
2023/12/03 12:10:44;;;;;;;60.37;37.53;;;1.20;79.70;;;;;;5035951;28;20434;-73
2023/12/03 12:13:10;;;;;;;55.50;35.97;;;1.40;80.10;;;;;;5038513;28;20078;-74
2023/12/03 12:15:36;;;;;;;57.27;36.60;;;1.40;80.00;;;;;;5037537;28;20402;-73
2023/12/03 12:18:03;;;;;;;55.60;35.50;;;1.30;80.00;;;;;;5035998;28;20458;-73
2023/12/03 12:20:32;;;;;;;49.97;34.10;;;1.30;79.90;;;;;;5035406;28;20094;-73
2023/12/03 12:22:58;;;;;;;56.37;35.17;;;1.30;80.00;;;;;;5035371;28;20075;-74